Time;durP1;ratioP1;P1;durP2;ratioP2;P2;SDS_P1;SDS_P2;PMS_P1;PMS_P2;Temp;Humidity;BMP_temperature;BMP_pressure;BME280_temperature;BME280_humidity;BME280_pressure;Samples;Min_cycle;Max_cycle;Signal;HPM_P1;HPM_P2
2022/07/05 00:02:10;;;;;;;;;0.50;0.50;;;;;29.41;32.72;101790.06;5095056;27;45386;-80
2022/07/05 00:04:36;;;;;;;;;1.75;0.25;;;;;30.03;31.88;101792.66;5089848;27;45312;-80
2022/07/05 00:07:19;;;;;;;;;2.00;0.75;;;;;29.33;32.74;101782.03;5079613;27;45763;-79
2022/07/05 00:09:50;;;;;;;;;1.00;1.00;;;;;29.84;32.06;101787.13;5101315;27;45519;-79
2022/07/05 00:12:16;;;;;;;;;1.00;1.00;;;;;29.65;32.52;101786.84;5101014;27;45441;-79
2022/07/05 00:14:43;;;;;;;;;2.00;1.00;;;;;29.08;33.02;101794.47;5082994;27;48510;-79
2022/07/05 00:17:10;;;;;;;;;1.50;0.50;;;;;28.92;33.36;101793.75;5088417;27;45169;-79
2022/07/05 00:19:35;;;;;;;;;0.75;0.75;;;;;28.99;32.94;101789.19;5071602;27;45258;-80
2022/07/05 00:22:04;;;;;;;;;1.00;1.00;;;;;28.95;33.12;101798.75;5082808;27;45731;-80
2022/07/05 00:24:29;;;;;;;;;1.00;1.00;;;;;28.92;32.89;101791.03;5083796;27;48087;-80
2022/07/05 00:26:55;;;;;;;;;2.00;0.25;;;;;29.07;33.44;101798.22;5102285;27;45317;-80
2022/07/05 00:29:20;;;;;;;;;1.00;1.00;;;;;29.11;32.72;101789.47;5101785;27;45323;-79
2022/07/05 00:31:46;;;;;;;;;1.00;1.00;;;;;29.16;33.13;101799.75;5082384;27;45490;-80
2022/07/05 00:34:11;;;;;;;;;1.25;1.25;;;;;29.08;33.24;101794.47;5093803;27;46990;-80
2022/07/05 00:36:37;;;;;;;;;1.50;1.00;;;;;29.09;32.59;101793.41;5083140;27;45263;-80
2022/07/05 00:39:03;;;;;;;;;2.50;1.25;;;;;29.09;33.03;101790.69;5102562;27;45452;-80
2022/07/05 00:41:28;;;;;;;;;1.50;1.50;;;;;28.96;33.31;101802.31;5101410;27;45215;-80
2022/07/05 00:43:56;;;;;;;;;1.00;1.00;;;;;28.90;33.13;101794.97;5082532;27;48371;-80
2022/07/05 00:46:22;;;;;;;;;1.00;1.00;;;;;28.83;33.62;101785.94;5082503;27;45448;-80
2022/07/05 00:48:48;;;;;;;;;1.00;1.00;;;;;28.81;33.38;101797.00;5082858;27;45434;-80
2022/07/05 00:51:13;;;;;;;;;1.50;1.50;;;;;29.47;32.53;101792.00;5100634;27;45320;-80
2022/07/05 00:53:40;;;;;;;;;2.00;0.75;;;;;29.38;32.92;101787.75;5100549;27;45450;-80
2022/07/05 00:56:06;;;;;;;;;2.00;2.00;;;;;28.88;33.41;101792.44;5082378;27;45629;-80
2022/07/05 00:58:32;;;;;;;;;1.50;1.50;;;;;28.90;33.34;101794.97;5082285;27;45177;-79
2022/07/05 01:00:58;;;;;;;;;1.00;1.00;;;;;28.99;33.54;101801.94;5100619;27;45499;-80
2022/07/05 01:03:27;;;;;;;;;1.00;1.00;;;;;29.16;33.22;101803.31;5082049;27;47528;-80
2022/07/05 01:05:53;;;;;;;;;1.00;1.00;;;;;29.44;32.47;101797.00;5100606;27;45616;-80
2022/07/05 01:08:19;;;;;;;;;1.00;1.00;;;;;29.54;32.40;101789.31;5100626;27;45383;-80
2022/07/05 01:10:45;;;;;;;;;1.00;1.00;;;;;28.77;33.70;101784.81;5082095;27;45500;-80
2022/07/05 01:13:10;;;;;;;;;1.50;1.50;;;;;28.61;34.03;101788.66;5100664;27;45515;-80
2022/07/05 01:15:37;;;;;;;;;1.00;1.00;;;;;28.53;33.92;101788.78;5082174;27;45373;-80
2022/07/05 01:18:04;;;;;;;;;1.00;1.00;;;;;28.46;34.35;101789.78;5083098;27;45285;-80
2022/07/05 01:20:30;;;;;;;;;1.50;0.25;;;;;28.37;34.22;101790.94;5082288;27;45441;-80
2022/07/05 01:22:59;;;;;;;;;1.75;1.75;;;;;27.96;34.26;101790.69;5102485;27;45357;-80
2022/07/05 01:25:27;;;;;;;;;2.00;1.00;;;;;27.86;35.06;101785.59;5104459;27;45377;-79
2022/07/05 01:27:54;;;;;;;;;1.00;1.00;;;;;28.15;34.56;101793.63;5103214;27;45305;-79
2022/07/05 01:30:20;;;;;;;;;2.00;1.00;;;;;28.34;34.28;101785.88;5101387;27;45300;-80
2022/07/05 01:32:46;;;;;;;;;2.00;2.00;;;;;28.38;34.66;101784.47;5083063;27;47131;-79
2022/07/05 01:35:12;;;;;;;;;0.25;0.00;;;;;28.26;33.76;101787.72;5082427;27;45592;-80
2022/07/05 01:37:39;;;;;;;;;1.00;1.00;;;;;28.11;34.65;101784.19;5081901;27;45393;-80
2022/07/05 01:40:06;;;;;;;;;1.00;1.00;;;;;27.82;35.47;101779.69;5082846;27;45991;-80
2022/07/05 01:42:32;;;;;;;;;1.50;1.00;;;;;27.91;34.47;101783.97;5085475;27;47687;-79
2022/07/05 01:44:57;;;;;;;;;4.50;1.50;;;;;27.85;34.91;101787.47;5095032;27;45170;-80
2022/07/05 01:47:23;;;;;;;;;3.00;1.00;;;;;27.99;34.94;101782.16;5104180;27;45405;-80
2022/07/05 01:49:53;;;;;;;;;0.75;0.75;;;;;27.69;35.38;101781.41;5103819;27;45516;-80
2022/07/05 01:52:21;;;;;;;;;1.00;1.00;;;;;27.61;34.96;101784.22;5103359;27;45442;-80
2022/07/05 01:54:47;;;;;;;;;0.75;0.75;;;;;27.59;35.44;101780.88;5085110;27;45294;-79
2022/07/05 01:57:13;;;;;;;;;1.75;1.75;;;;;27.27;36.14;101788.34;5103702;27;45407;-79
2022/07/05 01:59:38;;;;;;;;;1.00;1.00;;;;;27.32;35.75;101787.78;5084926;27;45543;-80
2022/07/05 02:02:06;;;;;;;;;0.75;0.75;;;;;27.25;36.55;101784.13;5103470;27;45360;-80
2022/07/05 02:04:33;;;;;;;;;0.75;0.75;;;;;27.13;37.02;101786.50;5084401;27;45479;-80
2022/07/05 02:06:58;;;;;;;;;1.50;1.50;;;;;27.09;37.04;101788.72;5091420;27;45392;-80
2022/07/05 02:09:24;;;;;;;;;1.50;1.50;;;;;27.04;36.72;101783.00;5099953;27;45432;-80
2022/07/05 02:11:50;;;;;;;;;0.00;0.00;;;;;27.03;37.08;101783.22;5084765;27;48041;-80
2022/07/05 02:14:16;;;;;;;;;2.50;0.75;;;;;27.01;38.00;101783.41;5101837;27;45542;-80
2022/07/05 02:16:41;;;;;;;;;1.25;0.75;;;;;27.66;37.12;101777.22;5103425;27;45436;-80
2022/07/05 02:19:06;;;;;;;;;2.50;1.00;;;;;27.83;36.79;101777.81;5103184;27;45241;-80
2022/07/05 02:21:32;;;;;;;;;1.75;0.75;;;;;27.91;36.75;101781.25;5102836;27;45274;-80
2022/07/05 02:23:57;;;;;;;;;3.75;1.75;;;;;27.94;36.89;101785.47;5103255;27;45230;-79
2022/07/05 02:26:23;;;;;;;;;2.75;1.50;;;;;28.14;35.94;101772.91;5085005;27;45387;-79
2022/07/05 02:28:48;;;;;;;;;3.25;0.25;;;;;28.01;36.50;101789.09;5103182;27;45224;-79
2022/07/05 02:31:15;;;;;;;;;4.00;2.00;;;;;27.84;36.69;101771.38;5084908;27;46844;-79
2022/07/05 02:33:40;;;;;;;;;4.00;2.00;;;;;27.86;36.99;101783.69;5103221;27;45283;-80
2022/07/05 02:36:12;;;;;;;;;1.75;1.50;;;;;27.09;39.07;101782.47;5085061;27;45390;-80
2022/07/05 02:38:38;;;;;;;;;2.25;0.50;;;;;27.01;38.68;101786.09;5103286;27;45424;-80
2022/07/05 02:41:06;;;;;;;;;1.50;1.50;;;;;26.99;38.64;101781.91;5104251;27;46370;-80
2022/07/05 02:43:32;;;;;;;;;3.25;0.50;;;;;26.98;39.02;101778.34;5085908;27;45776;-79
2022/07/05 02:45:57;;;;;;;;;1.50;0.75;;;;;26.88;39.13;101783.16;5085654;27;45334;-79
2022/07/05 02:48:22;;;;;;;;;1.75;1.50;;;;;27.21;38.56;101780.97;5103177;27;45377;-80
2022/07/05 02:50:48;;;;;;;;;1.50;1.50;;;;;27.55;38.67;101777.69;5084092;27;46580;-80
2022/07/05 02:53:13;;;;;;;;;2.50;2.00;;;;;28.10;37.56;101777.06;5083356;27;45411;-80
2022/07/05 02:55:39;;;;;;;;;1.50;1.50;;;;;27.67;37.74;101775.34;5084480;27;45448;-80
2022/07/05 02:58:04;;;;;;;;;4.25;1.25;;;;;27.50;37.55;101772.78;5102387;27;45544;-80
2022/07/05 03:00:29;;;;;;;;;1.50;1.50;;;;;27.33;37.73;101774.03;5102460;27;45434;-80
2022/07/05 03:02:55;;;;;;;;;4.75;2.50;;;;;27.26;39.57;101770.41;5084054;27;45374;-80
2022/07/05 03:05:21;;;;;;;;;2.50;2.50;;;;;27.02;38.75;101784.25;5102607;27;45309;-79
2022/07/05 03:07:46;;;;;;;;;2.00;2.00;;;;;26.87;39.23;101784.19;5096353;27;45355;-80
2022/07/05 03:10:11;;;;;;;;;3.50;1.75;;;;;26.75;39.72;101782.97;5102249;27;45413;-79
2022/07/05 03:12:37;;;;;;;;;2.25;0.75;;;;;26.82;40.20;101783.91;5102404;27;45261;-80
2022/07/05 03:15:02;;;;;;;;;3.25;1.25;;;;;26.25;41.29;101789.78;5102616;27;45348;-80
2022/07/05 03:17:27;;;;;;;;;4.25;3.50;;;;;26.26;40.35;101786.09;5102099;27;45307;-80
2022/07/05 03:19:53;;;;;;;;;2.75;2.50;;;;;26.21;40.70;101784.91;5084188;27;48105;-79
2022/07/05 03:22:18;;;;;;;;;3.75;2.00;;;;;26.23;40.82;101788.25;5102049;27;45290;-80
2022/07/05 03:24:43;;;;;;;;;1.50;1.50;;;;;26.41;40.48;101792.38;5102739;27;45222;-80
2022/07/05 03:27:09;;;;;;;;;2.00;2.00;;;;;26.33;41.18;101778.06;5102800;27;45400;-79
2022/07/05 03:29:34;;;;;;;;;4.00;3.00;;;;;26.21;41.36;101784.91;5084245;27;47232;-79
2022/07/05 03:32:00;;;;;;;;;5.25;2.50;;;;;26.30;41.00;101794.69;5102457;27;45517;-80
2022/07/05 03:34:25;;;;;;;;;3.75;2.00;;;;;26.29;41.44;101787.59;5086533;27;45274;-79
2022/07/05 03:36:50;;;;;;;;;4.75;3.00;;;;;26.40;41.32;101792.59;5104904;27;45529;-78
2022/07/05 03:39:16;;;;;;;;;2.75;2.75;;;;;26.38;41.25;101792.75;5104275;27;46035;-79
2022/07/05 03:41:41;;;;;;;;;3.75;2.75;;;;;26.43;40.46;101793.06;5084342;27;45491;-79
2022/07/05 03:44:07;;;;;;;;;2.50;2.50;;;;;26.55;41.14;101796.19;5084478;27;45350;-78
2022/07/05 03:46:32;;;;;;;;;2.75;2.50;;;;;26.50;40.55;101800.44;5085659;27;45655;-79
2022/07/05 03:48:57;;;;;;;;;3.75;2.50;;;;;26.51;40.76;101812.97;5084530;27;48105;-79
2022/07/05 03:51:23;;;;;;;;;2.00;2.00;;;;;26.47;40.62;101806.25;5083415;27;45667;-79
2022/07/05 03:53:48;;;;;;;;;6.00;3.25;;;;;26.50;40.64;101806.69;5083567;27;45339;-79
2022/07/05 03:56:19;;;;;;;;;5.00;3.75;;;;;26.53;40.40;101817.19;5083483;27;45446;-79
2022/07/05 03:58:44;;;;;;;;;1.00;1.00;;;;;26.34;41.21;101818.50;5084409;27;47276;-79
2022/07/05 04:01:09;;;;;;;;;5.00;3.00;;;;;26.24;41.35;101825.16;5102751;27;45273;-78
2022/07/05 04:03:35;;;;;;;;;3.25;2.75;;;;;26.26;41.60;101815.00;5083734;27;45326;-79
2022/07/05 04:06:00;;;;;;;;;3.00;3.00;;;;;26.29;41.24;101825.50;5081832;27;45443;-79
2022/07/05 04:08:25;;;;;;;;;5.25;3.00;;;;;26.27;41.08;101822.13;5077825;27;47188;-80
2022/07/05 04:10:51;;;;;;;;;5.75;3.00;;;;;26.10;41.87;101821.38;5101595;27;45254;-79
2022/07/05 04:13:16;;;;;;;;;5.50;4.00;;;;;26.04;41.88;101819.34;5101753;27;45248;-79
2022/07/05 04:15:41;;;;;;;;;3.25;2.75;;;;;26.19;41.60;101817.59;5101361;27;45429;-79
2022/07/05 04:18:07;;;;;;;;;3.25;2.00;;;;;26.25;41.38;101830.41;5101368;27;45457;-78
2022/07/05 04:20:32;;;;;;;;;5.00;4.00;;;;;26.28;41.48;101823.81;5100949;27;45294;-79
2022/07/05 04:22:58;;;;;;;;;3.00;3.00;;;;;26.39;41.70;101821.53;5083257;27;45448;-80
2022/07/05 04:25:23;;;;;;;;;2.75;2.75;;;;;26.31;41.74;101832.41;5083498;27;45310;-79
2022/07/05 04:27:51;;;;;;;;;3.75;3.50;;;;;26.47;42.26;101836.88;5085299;27;48066;-79
2022/07/05 04:30:18;;;;;;;;;5.50;4.00;;;;;26.43;41.74;101838.25;5083175;27;45537;-80
2022/07/05 04:32:44;;;;;;;;;3.00;3.00;;;;;26.34;42.19;101834.75;5083219;27;45255;-79
2022/07/05 04:35:10;;;;;;;;;7.25;4.00;;;;;26.67;41.58;101843.50;5102019;27;45479;-79
2022/07/05 04:37:36;;;;;;;;;5.50;3.00;;;;;26.80;40.78;101842.88;5082553;27;47687;-79
2022/07/05 04:40:04;;;;;;;;;7.75;3.00;;;;;26.90;41.15;101834.47;5101028;27;45372;-79
2022/07/05 04:42:30;;;;;;;;;6.50;3.50;;;;;26.93;40.85;101835.00;5082637;27;45429;-79
2022/07/05 04:44:55;;;;;;;;;6.75;3.75;;;;;26.84;41.41;101838.78;5073056;27;45843;-79
2022/07/05 04:47:21;;;;;;;;;3.00;3.00;;;;;26.81;41.44;101833.72;5100887;27;46372;-80
2022/07/05 04:49:46;;;;;;;;;3.00;3.00;;;;;26.53;41.81;101848.84;5082265;27;45890;-79
2022/07/05 04:52:11;;;;;;;;;6.50;5.00;;;;;26.78;41.40;101844.91;5082143;27;45384;-79
2022/07/05 04:54:37;;;;;;;;;4.25;2.75;;;;;26.44;41.75;101843.50;5100555;27;45524;-80
2022/07/05 04:57:03;;;;;;;;;4.25;3.50;;;;;26.37;42.46;101844.41;5100599;27;45310;-79
2022/07/05 04:59:28;;;;;;;;;4.75;4.00;;;;;26.39;42.16;101837.78;5081938;27;45283;-79
2022/07/05 05:01:53;;;;;;;;;4.50;4.50;;;;;26.51;41.47;101842.75;5082103;27;45371;-79
2022/07/05 05:04:19;;;;;;;;;6.00;4.00;;;;;26.54;42.12;101845.13;5100530;27;45298;-79
2022/07/05 05:06:44;;;;;;;;;8.00;4.25;;;;;26.34;42.36;101852.88;5099331;27;46337;-79
2022/07/05 05:09:09;;;;;;;;;3.50;3.25;;;;;26.09;43.38;101847.59;5096110;27;45274;-79
2022/07/05 05:11:35;;;;;;;;;4.75;2.50;;;;;26.24;42.94;101854.94;5100681;27;45286;-79
2022/07/05 05:14:00;;;;;;;;;7.50;4.00;;;;;26.30;42.47;101854.28;5082001;27;45275;-79
2022/07/05 05:16:26;;;;;;;;;3.25;3.25;;;;;26.32;42.45;101847.63;5100112;27;45219;-79
2022/07/05 05:18:53;;;;;;;;;5.00;4.00;;;;;26.57;42.09;101850.19;5100237;27;45370;-79
2022/07/05 05:21:19;;;;;;;;;3.25;3.00;;;;;26.17;42.99;101852.13;5081952;27;45581;-79
2022/07/05 05:23:44;;;;;;;;;6.00;5.00;;;;;26.13;42.94;101850.78;5100308;27;45384;-79
2022/07/05 05:26:10;;;;;;;;;4.00;3.25;;;;;25.96;43.98;101850.03;5101167;27;45455;-79
2022/07/05 05:28:35;;;;;;;;;8.50;5.00;;;;;25.87;43.84;101858.34;5100766;27;45500;-79
2022/07/05 05:31:00;;;;;;;;;5.00;5.00;;;;;25.92;43.93;101851.41;5100811;27;45310;-79
2022/07/05 05:33:26;;;;;;;;;5.25;4.00;;;;;25.93;43.87;101853.09;5082078;27;45317;-79
2022/07/05 05:35:52;;;;;;;;;5.25;5.00;;;;;25.93;44.51;101863.94;5100414;27;45501;-79
2022/07/05 05:38:17;;;;;;;;;7.50;6.00;;;;;25.96;44.05;101854.59;5100646;27;45187;-79
2022/07/05 05:40:44;;;;;;;;;6.00;4.50;;;;;25.93;43.96;101858.53;5081881;27;45240;-79
2022/07/05 05:43:10;;;;;;;;;7.25;6.75;;;;;25.97;44.12;101862.53;5098201;27;45234;-79
2022/07/05 05:45:35;;;;;;;;;7.00;5.00;;;;;26.03;43.78;101871.84;5074423;27;46889;-78
2022/07/05 05:48:04;;;;;;;;;5.25;4.00;;;;;26.03;44.56;101869.13;5081912;27;45381;-81
2022/07/05 05:50:32;;;;;;;;;6.25;4.75;;;;;25.93;44.59;101866.63;5100499;27;45257;-80
2022/07/05 05:52:58;;;;;;;;;7.00;6.50;;;;;25.94;44.83;101879.16;5081854;27;45671;-80
2022/07/05 05:55:25;;;;;;;;;8.75;6.25;;;;;25.90;44.42;101879.66;5082007;27;45834;-81
2022/07/05 05:57:51;;;;;;;;;5.50;5.25;;;;;25.96;44.52;101887.06;5100248;27;45307;-82
2022/07/05 06:00:17;;;;;;;;;7.50;6.50;;;;;26.07;44.25;101884.81;5099923;27;45449;-80
2022/07/05 06:02:44;;;;;;;;;7.00;6.00;;;;;26.04;43.83;101890.59;5081517;27;46207;-83
2022/07/05 06:05:10;;;;;;;;;9.00;4.25;;;;;26.09;44.02;101893.63;5081362;27;47927;-80
2022/07/05 06:07:56;;;;;;;;;8.25;6.00;;;;;26.19;43.89;101890.69;5079921;27;45447;-82
2022/07/05 06:10:26;;;;;;;;;5.50;5.00;;;;;26.20;43.74;101884.25;5099676;27;45424;-81
2022/07/05 06:12:53;;;;;;;;;10.75;5.25;;;;;26.27;44.21;101879.00;5099448;27;45574;-82
2022/07/05 06:15:19;;;;;;;;;9.75;7.00;;;;;26.37;43.85;101879.63;5098937;27;45388;-80
2022/07/05 06:17:45;;;;;;;;;6.50;5.75;;;;;27.05;42.28;101885.00;5099858;27;45508;-80
2022/07/05 06:20:15;;;;;;;;;5.25;5.25;;;;;27.21;41.86;101889.47;5081972;27;45590;-81
2022/07/05 06:22:41;;;;;;;;;5.25;5.25;;;;;26.91;42.51;101883.13;5099944;27;45511;-80
2022/07/05 06:25:07;;;;;;;;;9.00;6.25;;;;;26.80;42.54;101887.06;5099499;27;46037;-80
2022/07/05 06:27:38;;;;;;;;;8.00;7.00;;;;;26.91;42.66;101887.66;5100699;27;45393;-81
2022/07/05 06:30:07;;;;;;;;;7.00;5.50;;;;;26.71;42.64;101885.44;5104821;27;45231;-80
2022/07/05 06:32:33;;;;;;;;;9.00;5.25;;;;;26.99;42.81;101882.19;5091054;27;46292;-81
2022/07/05 06:34:58;;;;;;;;;9.50;6.00;;;;;27.24;42.22;101890.94;5105560;27;45471;-81
2022/07/05 06:37:23;;;;;;;;;7.75;6.50;;;;;27.19;42.08;101891.50;5102544;27;45374;-81
2022/07/05 06:39:49;;;;;;;;;11.50;7.50;;;;;27.38;41.66;101890.97;5103208;27;45489;-81
2022/07/05 06:42:15;;;;;;;;;6.50;6.50;;;;;27.21;41.93;101896.75;5103302;27;45311;-81
2022/07/05 06:44:40;;;;;;;;;10.50;9.50;;;;;27.25;42.16;101893.47;5078637;27;46245;-81
2022/07/05 06:47:05;;;;;;;;;9.25;7.00;;;;;27.11;41.79;101889.72;5085603;27;45600;-81
2022/07/05 06:49:31;;;;;;;;;7.75;7.25;;;;;27.19;42.30;101897.78;5103603;27;45327;-81
2022/07/05 06:51:56;;;;;;;;;9.75;6.25;;;;;27.46;41.11;101896.31;5102233;27;45412;-80
2022/07/05 06:54:21;;;;;;;;;6.25;6.25;;;;;27.73;41.61;101894.00;5102695;27;46268;-81
2022/07/05 06:56:47;;;;;;;;;12.75;8.25;;;;;27.83;40.96;101894.56;5084008;27;45414;-81
2022/07/05 06:59:12;;;;;;;;;10.50;7.00;;;;;28.09;40.56;101891.34;5102576;27;45298;-80
2022/07/05 07:01:37;;;;;;;;;10.50;7.00;;;;;28.11;40.13;101898.25;5084158;27;45615;-81
2022/07/05 07:04:03;;;;;;;;;6.75;5.00;;;;;28.35;39.50;101893.53;5102566;27;45269;-81
2022/07/05 07:06:28;;;;;;;;;6.75;6.50;;;;;28.49;39.46;101895.38;5102190;27;45461;-81
2022/07/05 07:11:40;;;;;;;;;8.50;7.00;;;;;28.16;39.73;101889.53;5102718;27;45243;-81
2022/07/05 07:14:05;;;;;;;;;10.25;7.25;;;;;28.21;40.31;101887.97;5102192;27;45265;-81
2022/07/05 07:16:31;;;;;;;;;12.50;6.75;;;;;28.64;39.60;101893.44;5083903;27;45925;-81
2022/07/05 07:18:56;;;;;;;;;6.25;6.00;;;;;28.60;40.04;101886.69;5083851;27;45550;-81
2022/07/05 07:21:22;;;;;;;;;7.75;6.50;;;;;30.61;40.31;101895.72;5102323;27;45484;-80
2022/07/05 07:23:47;;;;;;;;;6.00;6.00;;;;;34.64;36.12;101890.09;5102724;27;45968;-81
2022/07/05 07:26:13;;;;;;;;;7.25;5.50;;;;;37.38;34.17;101885.56;5087584;27;45290;-81
2022/07/05 07:28:40;;;;;;;;;9.00;7.00;;;;;39.47;31.44;101892.13;5087724;27;45568;-81
2022/07/05 07:31:05;;;;;;;;;7.25;6.00;;;;;41.92;28.50;101888.34;5084733;27;45261;-81
2022/07/05 07:33:31;;;;;;;;;7.00;5.75;;;;;43.81;26.92;101895.59;5102232;27;45439;-81
2022/07/05 07:35:57;;;;;;;;;6.50;6.50;;;;;45.52;24.84;101892.22;5102071;27;45309;-81
2022/07/05 07:38:24;;;;;;;;;9.50;7.75;;;;;46.94;22.27;101884.09;5102137;27;45314;-82
2022/07/05 07:40:50;;;;;;;;;5.50;4.50;;;;;48.29;21.29;101904.75;5101790;27;45529;-82
2022/07/05 07:43:15;;;;;;;;;6.00;6.00;;;;;49.31;20.41;101897.28;5099354;27;46301;-82
2022/07/05 07:45:40;;;;;;;;;6.00;4.50;;;;;50.36;19.24;101901.84;5077167;27;45242;-83
2022/07/05 07:48:06;;;;;;;;;3.50;3.50;;;;;51.40;18.80;101900.69;5083630;27;45266;-83
2022/07/05 07:50:31;;;;;;;;;6.50;5.25;;;;;52.17;16.55;101912.78;5083525;27;45448;-83
2022/07/05 07:52:57;;;;;;;;;6.25;6.25;;;;;52.68;15.53;101913.88;5101359;27;46200;-83
2022/07/05 07:55:22;;;;;;;;;9.00;6.00;;;;;53.00;15.58;101914.72;5101807;27;45392;-83
2022/07/05 07:57:47;;;;;;;;;5.00;5.00;;;;;53.34;15.63;101916.00;5102000;27;45468;-83
2022/07/05 08:00:13;;;;;;;;;7.25;7.25;;;;;53.34;15.55;101914.00;5084020;27;45697;-80
2022/07/05 08:02:38;;;;;;;;;4.75;4.50;;;;;53.95;13.70;101909.78;5092484;27;47629;-81
2022/07/05 08:05:04;;;;;;;;;6.25;5.75;;;;;54.13;14.09;101913.78;5087314;27;45347;-83
2022/07/05 08:07:30;;;;;;;;;12.50;7.50;;;;;54.06;13.33;101911.66;5101382;27;45322;-83
2022/07/05 08:09:55;;;;;;;;;9.25;6.75;;;;;53.97;12.36;101904.56;5101725;27;45354;-83
2022/07/05 08:12:21;;;;;;;;;6.50;4.50;;;;;54.24;12.70;101909.19;5101090;27;45355;-83
2022/07/05 08:14:46;;;;;;;;;15.00;9.25;;;;;54.33;12.20;101906.97;5082378;27;45402;-84
2022/07/05 08:17:12;;;;;;;;;6.75;6.25;;;;;54.48;11.79;101897.56;5101503;27;45292;-83
2022/07/05 08:22:23;;;;;;;;;10.25;6.25;;;;;55.21;11.42;101904.94;5100858;27;45493;-82
2022/07/05 08:24:49;;;;;;;;;5.50;5.50;;;;;55.65;12.57;101898.72;5101595;27;45341;-82
2022/07/05 08:27:14;;;;;;;;;6.00;5.00;;;;;56.26;12.25;101889.84;5101597;27;45363;-82
2022/07/05 08:29:41;;;;;;;;;7.25;5.00;;;;;57.00;12.14;101895.47;5083197;27;45436;-82
2022/07/05 08:32:07;;;;;;;;;12.75;7.25;;;;;57.23;11.48;101894.41;5101465;27;46061;-82
2022/07/05 08:34:33;;;;;;;;;8.75;5.75;;;;;57.43;11.14;101889.28;5101992;27;45478;-82
2022/07/05 08:36:59;;;;;;;;;5.75;5.00;;;;;57.96;10.95;101890.38;5083002;27;45439;-82
2022/07/05 08:39:24;;;;;;;;;4.25;4.25;;;;;58.30;10.04;101890.88;5082845;27;45602;-82
2022/07/05 08:41:50;;;;;;;;;4.75;4.25;;;;;57.92;8.85;101889.53;5082493;27;46953;-82
2022/07/05 08:44:21;;;;;;;;;6.00;4.00;;;;;57.65;10.39;101888.19;5091616;27;45381;-82
2022/07/05 08:46:48;;;;;;;;;5.50;3.75;;;;;57.67;9.80;101891.44;5101096;27;45424;-82
2022/07/05 08:49:14;;;;;;;;;7.00;3.25;;;;;57.31;10.48;101888.38;5082420;27;45449;-82
2022/07/05 08:51:42;;;;;;;;;8.75;5.75;;;;;57.96;10.28;101889.56;5081246;27;47151;-81
2022/07/05 08:54:12;;;;;;;;;5.75;3.50;;;;;58.05;10.12;101882.28;5100890;27;45320;-82
2022/07/05 08:56:40;;;;;;;;;8.00;2.50;;;;;58.71;10.40;101880.00;5082498;27;45508;-82
2022/07/05 08:59:06;;;;;;;;;2.50;2.50;;;;;59.32;8.60;101885.66;5100900;27;45460;-82
2022/07/05 09:01:34;;;;;;;;;6.00;5.00;;;;;59.65;8.45;101882.31;5100456;27;46286;-82
2022/07/05 09:04:05;;;;;;;;;6.25;4.50;;;;;59.16;8.24;101877.53;5082385;27;45326;-82
2022/07/05 09:06:34;;;;;;;;;3.25;3.25;;;;;58.98;8.96;101877.56;5100513;27;45405;-82
2022/07/05 09:09:01;;;;;;;;;4.50;3.50;;;;;59.56;9.72;101879.06;5082253;27;45861;-82
2022/07/05 09:11:36;;;;;;;;;3.00;3.00;;;;;60.27;8.97;101875.09;5100520;27;45312;-83
2022/07/05 09:14:04;;;;;;;;;3.75;3.75;;;;;60.82;9.07;101887.34;5082077;27;45357;-82
2022/07/05 09:16:31;;;;;;;;;4.25;4.25;;;;;61.20;8.62;101871.03;5100688;27;45421;-82
2022/07/05 09:19:04;;;;;;;;;7.25;4.50;;;;;61.27;8.38;101882.41;5099023;27;45563;-82
2022/07/05 09:21:29;;;;;;;;;4.00;4.00;;;;;61.69;8.70;101878.25;5100397;27;45490;-82
2022/07/05 09:23:57;;;;;;;;;3.00;2.00;;;;;62.36;8.84;101876.50;5100526;27;45498;-82
2022/07/05 09:26:47;;;;;;;;;2.75;1.75;;;;;63.17;8.31;101866.91;5100809;27;45396;-82
2022/07/05 09:29:15;;;;;;;;;4.50;2.75;;;;;63.67;7.49;101870.38;5098392;27;45321;-82
2022/07/05 09:31:46;;;;;;;;;3.25;3.25;;;;;64.42;7.52;101878.06;5101395;27;46092;-83
2022/07/05 09:34:13;;;;;;;;;4.00;4.00;;;;;64.32;7.92;101870.50;5101905;27;45430;-82
2022/07/05 09:36:55;;;;;;;;;4.00;2.00;;;;;63.92;7.00;101872.72;5082110;27;45354;-82
2022/07/05 09:39:36;;;;;;;;;3.25;3.25;;;;;63.54;6.42;101875.19;5100485;27;45354;-82
2022/07/05 09:42:09;;;;;;;;;2.00;2.00;;;;;63.32;6.77;101868.25;5100242;27;46224;-82
2022/07/05 09:44:55;;;;;;;;;5.00;3.50;;;;;62.93;6.36;101858.31;5091002;27;45437;-83
2022/07/05 09:47:24;;;;;;;;;4.25;4.25;;;;;62.18;6.99;101869.44;5101023;27;46151;-82
2022/07/05 09:49:54;;;;;;;;;4.00;4.00;;;;;61.79;7.63;101876.47;5081731;27;45568;-83
2022/07/05 09:52:32;;;;;;;;;2.00;2.00;;;;;62.03;6.82;101868.78;5081957;27;48785;-83
2022/07/05 09:55:03;;;;;;;;;3.25;3.25;;;;;62.20;7.23;101869.81;5100002;27;45238;-83
2022/07/05 09:57:29;;;;;;;;;3.00;3.00;;;;;62.61;7.54;101872.41;5100250;27;45435;-82
2022/07/05 10:00:04;;;;;;;;;0.00;0.00;;;;;62.45;7.21;101872.28;5081500;27;45407;-83
2022/07/05 10:02:36;;;;;;;;;2.75;2.75;;;;;62.58;6.93;101876.94;5099944;27;47204;-83
2022/07/05 10:05:11;;;;;;;;;8.00;4.50;;;;;62.00;6.87;101875.41;5102571;27;45448;-83
2022/07/05 10:07:40;;;;;;;;;2.25;2.25;;;;;61.55;7.22;101869.03;5080008;27;45389;-83
2022/07/05 10:10:07;;;;;;;;;5.50;5.25;;;;;61.65;7.57;101874.59;5103539;27;45281;-83
2022/07/05 10:12:36;;;;;;;;;3.50;3.50;;;;;61.61;6.89;101862.44;5103310;27;45466;-84
2022/07/05 10:15:02;;;;;;;;;3.00;3.00;;;;;61.90;7.21;101868.59;5068393;27;45500;-84
2022/07/05 10:17:30;;;;;;;;;5.00;5.00;;;;;62.26;6.60;101868.06;5084848;27;45424;-84
2022/07/05 10:19:58;;;;;;;;;5.25;4.50;;;;;62.36;6.78;101869.94;5103621;27;45477;-84
2022/07/05 10:22:24;;;;;;;;;4.75;4.25;;;;;61.96;6.58;101886.06;5102663;27;46082;-83
2022/07/05 10:24:49;;;;;;;;;4.00;4.00;;;;;61.72;7.16;101878.63;5103510;27;45329;-84
2022/07/05 10:27:16;;;;;;;;;3.00;3.00;;;;;61.52;6.90;101878.44;5103384;27;45375;-84
2022/07/05 10:29:43;;;;;;;;;6.75;3.75;;;;;60.84;7.37;101884.03;5104220;27;45450;-82
2022/07/05 10:32:10;;;;;;;;;6.25;4.50;;;;;60.31;7.07;101878.72;5103459;27;46368;-83
2022/07/05 10:34:35;;;;;;;;;3.00;3.00;;;;;59.39;7.86;101875.06;5094935;27;45466;-83
2022/07/05 10:37:00;;;;;;;;;4.75;4.50;;;;;58.93;8.13;101866.56;5103802;27;45515;-83
2022/07/05 10:39:27;;;;;;;;;4.00;4.00;;;;;58.17;7.88;101869.75;5103886;27;45527;-83
2022/07/05 10:41:54;;;;;;;;;4.75;4.00;;;;;56.95;8.20;101858.91;5104530;27;46167;-83
2022/07/05 10:44:29;;;;;;;;;5.00;3.00;;;;;55.70;9.42;101855.06;5075504;27;45259;-83
2022/07/05 10:47:07;;;;;;;;;5.00;3.25;;;;;54.01;10.02;101848.91;5103298;27;45271;-83
2022/07/05 10:49:33;;;;;;;;;4.25;3.25;;;;;52.66;11.00;101848.50;5084815;27;45452;-83
2022/07/05 10:51:58;;;;;;;;;6.00;5.25;;;;;51.60;10.98;101849.06;5102890;27;45306;-83
2022/07/05 10:54:23;;;;;;;;;6.75;3.00;;;;;50.79;11.22;101845.16;5102786;27;45465;-83
2022/07/05 10:57:22;;;;;;;;;24.00;22.00;;;;;50.29;12.36;101847.34;5103633;27;45422;-83
2022/07/05 11:00:06;;;;;;;;;19.50;13.25;;;;;49.54;12.25;101847.28;5084179;27;45429;-83
2022/07/05 11:02:32;;;;;;;;;9.25;6.25;;;;;48.67;12.16;101852.44;5102623;27;47466;-83
2022/07/05 11:04:59;;;;;;;;;7.50;6.00;;;;;47.98;13.45;101846.91;5102794;27;45437;-83
2022/07/05 11:08:02;;;;;;;;;4.50;4.25;;;;;47.19;13.49;101840.59;5078473;27;45295;-83
2022/07/05 11:10:31;;;;;;;;;6.75;5.75;;;;;46.45;14.45;101832.78;5102296;27;45222;-83
2022/07/05 11:12:56;;;;;;;;;6.75;6.75;;;;;45.93;14.51;101844.72;5102564;27;45428;-83
2022/07/05 11:15:22;;;;;;;;;4.50;4.25;;;;;44.93;14.43;101846.47;5101861;27;45444;-83
2022/07/05 11:17:47;;;;;;;;;4.00;4.00;;;;;44.32;15.36;101851.13;5084106;27;45472;-83
2022/07/05 11:20:25;;;;;;;;;4.75;3.00;;;;;43.93;14.82;101850.59;5083830;27;45559;-83
2022/07/05 11:23:13;;;;;;;;;5.75;4.00;;;;;43.44;15.90;101849.00;5071394;27;47229;-82
2022/07/05 11:25:41;;;;;;;;;6.50;6.00;;;;;42.80;16.22;101841.94;5083734;27;45955;-83
2022/07/05 11:28:17;;;;;;;;;3.75;3.75;;;;;42.60;16.49;101835.72;5102527;27;45315;-83
2022/07/05 11:30:52;;;;;;;;;5.75;4.75;;;;;42.11;16.58;101837.47;5102108;27;45326;-82
2022/07/05 11:33:31;;;;;;;;;3.75;3.75;;;;;41.87;17.63;101847.59;5095254;27;45581;-82